Nearby METAR Reports

 

KBFI - Seattle/Boeing, Washington, USA
Distance from station: S 10mi, 16km
Updated: Wed, 12-May-2021 6:53pm PDT
Clear
Clear
 Wind from NW
Wind: NW 8 mph , 13 km/h
Temperature: 64°F , 18°C
Dew Point: 46°F , 8°C
Humidity: 52%
Barometer: 30.13 inHg , 1020.3 hPa
Clouds: Clear
Visibility: 10 miles , 16 km
2021/05/13 01:53 KBFI 130153Z 32007KT 10SM CLR 18/08 A3013 RMK AO2 SLP203 T01830083
KRNT - Renton, Washington, USA
Distance from station: SSE 14mi, 23km
Updated: Wed, 12-May-2021 6:53pm PDT
Clear
Clear
 Wind from NNW
Wind: NNW 10 mph , 17 km/h
Temperature: 66°F , 19°C
Dew Point: 46°F , 8°C
Humidity: 49%
Barometer: 30.13 inHg , 1020.3 hPa
Clouds: Clear
Visibility: 10 miles , 16 km
2021/05/13 01:53 KRNT 130153Z 34009KT 10SM CLR 19/08 A3013 RMK AO2 SLP207 T01940083
 
KPAE - Everett, Washington, USA
Distance from station: N 15mi, 25km
Updated: Wed, 12-May-2021 6:53pm PDT
Overcast
Overcast
 Wind from NNW
Wind: NNW 7 mph , 11 km/h
Temperature: 59°F , 15°C
Dew Point: 48°F , 9°C
Humidity: 68%
Barometer: 30.16 inHg , 1021.3 hPa
Clouds: Overcast
Visibility: 10 miles , 16 km
Cloud details: Overcast 7000 ft
2021/05/13 01:53 KPAE 130153Z 34006KT 10SM OVC070 15/09 A3016 RMK AO2 SLP213 T01500094
KSEA - Seattle/Metro, Washington, USA
Distance from station: S 17mi, 27km
Updated: Wed, 12-May-2021 6:53pm PDT
Partly cloudy
Partly cloudy
 Wind from NNW
Wind: NNW 15 mph , 24 km/h
Temperature: 66°F , 19°C
Dew Point: 45°F , 7°C
Humidity: 46%
Barometer: 30.14 inHg , 1020.7 hPa
Clouds: Partly cloudy
Visibility: 10 miles , 16 km
Cloud details: Few Clouds 4000 ft
Partly cloudy 9000 ft
2021/05/13 01:53 KSEA 130153Z 34013KT 10SM FEW040 SCT090 19/07 A3014 RMK AO2 SLP211 T01940072
 
KPWT - Bremerton Ntnl, Washington, USA
Distance from station: SW 24mi, 39km
Updated: Wed, 12-May-2021 6:56pm PDT
Clear
Clear
 Wind from NNE
Wind: NNE 10 mph , 17 km/h
Temperature: 64°F , 18°C
Dew Point: 48°F , 9°C
Humidity: 56%
Barometer: 30.14 inHg , 1020.7 hPa
Clouds: Clear
Visibility: 10 miles , 16 km
2021/05/13 01:56 KPWT 130156Z AUTO 03009KT 10SM CLR 18/09 A3014 RMK AO2 SLP209 T01830094
KTIW - Tacoma, Washington, USA
Distance from station: SSW 32mi, 52km
Updated: Wed, 12-May-2021 6:53pm PDT
Clear
Clear
 Wind from NNE
Wind: NNE 12 mph , 19 km/h
Temperature: 63°F , 17°C
Dew Point: 46°F , 8°C
Humidity: 56%
Barometer: 30.14 inHg , 1020.7 hPa
Clouds: Clear
Visibility: 10 miles , 16 km
2021/05/13 01:53 KTIW 130153Z 02010KT 10SM CLR 17/08 A3014 RMK AO2 SLP206 T01670078
 
KAWO - Arlington Muni, Washington, USA
Distance from station: N 33mi, 54km
Updated: Wed, 12-May-2021 6:56pm PDT
Overcast
Overcast
 Wind from WNW
Wind: WNW 14 mph , 22 km/h
Temperature: 64°F , 18°C
Dew Point: 52°F , 11°C
Humidity: 64%
Barometer: 30.15 inHg , 1021 hPa
Clouds: Overcast
Visibility: 10 miles , 16 km
Cloud details: Overcast 8000 ft
2021/05/13 01:56 KAWO 130156Z AUTO 30012KT 10SM OVC080 18/11 A3015 RMK AO2 SLP212 T01780111
KTCM - Tacoma/Mc Chord, Washington, USA
Distance from station: S 41mi, 65km
Updated: Wed, 12-May-2021 6:58pm PDT
Clear
Clear
 Wind from NW
Wind: NW 9 mph , 15 km/h
Temperature: 66°F , 19°C
Dew Point: 46°F , 8°C
Humidity: 49%
Barometer: 30.12 inHg , 1020 hPa
Clouds: Clear
Visibility: 7 miles , 11 km
2021/05/13 01:58 KTCM 130158Z 32008KT 7SM CLR 19/08 A3012 RMK WND DATA ESTMD $
 
KPLU - Puyallup/Thun, Washington, USA
Distance from station: S 41mi, 66km
Updated: Wed, 12-May-2021 6:55pm PDT
Clear
Clear
 Wind from calm
Wind: Calm
Temperature: 68°F , 20°C
Dew Point: 45°F , 7°C
Humidity: 43%
Barometer: 30.13 inHg , 1020.3 hPa
Clouds: Clear
Visibility: 10 miles , 16 km
2021/05/13 01:55 KPLU 130155Z AUTO 00000KT 10SM CLR 20/07 A3013 RMK AO2
KGRF - Fort Lewis/Gray, Washington, USA
Distance from station: SSW 45mi, 72km
Updated: Wed, 12-May-2021 6:58pm PDT
Few Clouds
Few Clouds
 Wind from NNW
Wind: NNW 10 mph , 17 km/h
Temperature: 66°F , 19°C
Dew Point: 45°F , 7°C
Humidity: 46%
Barometer: 30.12 inHg , 1020 hPa
Clouds: Few Clouds
Visibility: 10 miles , 16 km
Cloud details: Few Clouds 6000 ft
2021/05/13 01:58 KGRF 130158Z 34009KT 10SM FEW060 19/07 A3012 RMK AO2A SLP203 T01910072 $
 
KNUW - Whidbey Is. Nas, Washington, USA
Distance from station: NNW 48mi, 77km
Updated: Wed, 12-May-2021 6:56pm PDT
Mostly cloudy
Mostly cloudy
 Wind from WSW
Wind: WSW 10 mph , 17 km/h
Temperature: 54°F , 12°C
Dew Point: 48°F , 9°C
Humidity: 82%
Barometer: 30.21 inHg , 1023 hPa
Clouds: Mostly cloudy
Visibility: 10 miles , 16 km
Cloud details: Few Clouds 1000 ft
Few Clouds 3500 ft
Partly cloudy 7500 ft
Mostly cloudy 13000 ft
Mostly cloudy 20000 ft
2021/05/13 01:56 KNUW 130156Z 25009KT 10SM FEW010 FEW035 SCT075 BKN130 BKN200 12/09 A3021 RMK AO2 SLP228 T01170089 $
KSHN - Shelton, Washington, USA
Distance from station: SW 50mi, 80km
Updated: Wed, 12-May-2021 6:53pm PDT
Mostly cloudy
Mostly cloudy
 Wind from N
Wind: N 6 mph , 9 km/h
Temperature: 68°F , 20°C
Dew Point: 48°F , 9°C
Humidity: 49%
Barometer: 30.10 inHg , 1019.3 hPa
Clouds: Mostly cloudy
Visibility: 10 miles , 16 km
Cloud details: Mostly cloudy 5500 ft
2021/05/13 01:53 KSHN 130153Z AUTO 36005KT 10SM BKN055 20/09 A3010 RMK AO2 SLP194 T02000094